Terminal Aerodrome Forecast
Issued by NWS New Orleans/Baton Rouge, LA

Home | Current Version | Previous Version | Text Only | Print | Product List | Glossary On
Versions: 1 2 3 4 5 6 7 8 9 10 11 12 13
060
FTUS44 KLIX 171248 AAA
TAFBTR
TAF AMD
KBTR 171248Z 1713/1812 31009KT 5SM -RA BR SCT005 BKN014 OVC050
      TEMPO 1713/1715 2SM SHRA OVC007
     FM171500 VRB05KT P6SM BKN014 BKN050 OVC070
     FM171900 22005KT P6SM BKN020 BKN070
     FM172300 VRB03KT P6SM BKN030 BKN070
     FM180000 VRB03KT P6SM BKN040 BKN070
     FM180700 00000KT 5SM BR VCSH FEW007 BKN050=

USA.gov is the U.S. government's official web portal to all federal, state and local government web resources and services.